Anniston, Missouri
Current Conditions -  °F | °C
As of 5:15 AM on Friday 24 Oct 2014 (Local Time) from KCIR Reporting Station
Overcast Overcast  
Wind Chill: 49°   Ceiling: 2700
Heat Index: 49°   Visibility: 7mi
Dew Point: 46°   Wind: 0mph
Humidity: 92%   Direction: NA
Pressure: 30.13"   Gusts: NA
Location:  36.83°N, 89.33°W
Report Text: KCIR 241015Z AUTO 00000KT 7SM OVC027 09/08 A3013 RMK AO2 T00920079
Loading
Personal Weather Stations






























Interactive Weather Map
Tropical Storm Tracking
New forecast layout! Learn more

10-Day Weather Forecast

Advertisements
Track Severe Weather on mobile